Time;durP1;ratioP1;P1;durP2;ratioP2;P2;SDS_P1;SDS_P2;PMS_P1;PMS_P2;Temp;Humidity;BMP_temperature;BMP_pressure;BME280_temperature;BME280_humidity;BME280_pressure;Samples;Min_cycle;Max_cycle;Signal;HPM_P1;HPM_P2
2022/10/26 00:02:22;;;;;;;;;;;14.90;99.90;;;;;;5061439;28;20011;-74
2022/10/26 00:04:48;;;;;;;;;;;14.90;99.90;;;;;;5059263;28;19965;-74
2022/10/26 00:07:13;;;;;;;;;;;14.90;99.90;;;;;;5051890;28;20379;-74
2022/10/26 00:09:39;;;;;;;;;;;14.80;99.90;;;;;;5038327;28;19916;-74
2022/10/26 00:12:04;;;;;;;;;;;14.80;99.90;;;;;;5040068;28;20109;-74
2022/10/26 00:14:30;;;;;;;;;;;14.80;99.90;;;;;;5043047;28;19912;-74
2022/10/26 00:16:55;;;;;;;;;;;14.70;99.90;;;;;;5059902;28;19999;-73
2022/10/26 00:19:21;;;;;;;;;;;14.70;99.90;;;;;;5042263;28;19923;-74
2022/10/26 00:21:46;;;;;;;;;;;14.70;99.90;;;;;;5042533;28;19988;-74
2022/10/26 00:24:12;;;;;;;;;;;14.70;99.90;;;;;;5060821;28;20015;-74
2022/10/26 00:26:38;;;;;;;;;;;14.70;99.90;;;;;;5060555;28;20375;-74
2022/10/26 00:29:04;;;;;;;;;;;14.70;99.90;;;;;;5058208;28;19940;-73
2022/10/26 00:31:29;;;;;;;;;;;14.70;99.90;;;;;;5022986;28;19991;-74
2022/10/26 00:33:55;;;;;;;;;;;14.70;99.90;;;;;;5057329;28;20355;-73
2022/10/26 00:36:22;;;;;;;;;;;14.80;99.90;;;;;;5042655;28;19913;-74
2022/10/26 00:38:48;;;;;;;;;;;14.90;99.90;;;;;;5058586;28;19959;-74
2022/10/26 00:41:15;;;;;;;;;;;14.90;99.90;;;;;;5056378;28;19924;-73
2022/10/26 00:43:40;;;;;;;;;;;14.90;99.90;;;;;;5025091;28;20011;-74
2022/10/26 00:46:08;;;;;;;;;;;15.00;99.90;;;;;;5058228;28;20379;-74
2022/10/26 00:48:37;;;;;;;;;;;15.00;99.90;;;;;;5060540;28;19990;-74
2022/10/26 00:51:05;;;;;;;;;;;15.10;99.90;;;;;;5059082;28;20439;-73
2022/10/26 00:53:31;;;;;;;;;;;15.10;99.90;;;;;;5056380;28;19921;-73
2022/10/26 00:55:57;;;;;;;;;;;15.20;99.90;;;;;;5054102;28;19942;-74
2022/10/26 00:58:23;;;;;;;;;;;15.20;99.90;;;;;;5059501;28;19951;-73
2022/10/26 01:00:50;;;;;;;;;;;15.30;99.90;;;;;;5058435;28;19946;-74
2022/10/26 01:03:15;;;;;;;;;;;15.40;99.90;;;;;;5060608;28;19916;-73
2022/10/26 01:05:42;;;;;;;;;;;15.40;99.90;;;;;;5059773;28;19916;-74
2022/10/26 01:08:08;;;;;;;;;;;15.40;99.90;;;;;;5059846;28;19916;-73
2022/10/26 01:10:34;;;;;;;;;;;15.50;99.90;;;;;;5042884;28;20003;-73
2022/10/26 01:13:01;;;;;;;;;;;15.50;99.90;;;;;;5043873;28;19924;-74
2022/10/26 01:15:45;;;;;;;;;;;15.50;99.90;;;;;;5062805;28;19916;-74
2022/10/26 01:18:25;;;;;;;;;;;15.60;99.90;;;;;;5058617;28;19952;-73
2022/10/26 01:20:51;;;;;;;;;;;15.60;99.90;;;;;;5043922;28;19984;-73
2022/10/26 01:23:28;;;;;;;;;;;15.60;99.90;;;;;;5063538;28;20276;-73
2022/10/26 01:26:03;;;;;;;;;;;15.60;99.90;;;;;;5063961;28;19956;-73
2022/10/26 01:28:54;;;;;;;;;;;15.60;99.90;;;;;;5045269;28;19916;-75
2022/10/26 01:31:27;;;;;;;;;;;15.60;99.90;;;;;;5055411;28;19916;-74
2022/10/26 01:33:58;;;;;;;;;;;15.50;99.90;;;;;;5046188;28;20019;-73
2022/10/26 01:36:30;;;;;;;;;;;15.60;99.90;;;;;;5038932;28;19959;-75
2022/10/26 01:39:02;;;;;;;;;;;15.70;99.90;;;;;;5030214;28;19942;-74
2022/10/26 01:41:33;;;;;;;;;;;15.70;99.90;;;;;;5048774;28;19929;-74
2022/10/26 01:44:01;;;;;;;;;;;15.70;99.90;;;;;;5055062;28;20264;-74
2022/10/26 01:46:30;;;;;;;;;;;15.70;99.90;;;;;;5061168;28;20197;-74
2022/10/26 01:48:58;;;;;;;;;;;15.80;99.90;;;;;;5055015;28;19921;-73
2022/10/26 01:51:25;;;;;;;;;;;15.70;99.90;;;;;;5053428;28;19948;-73
2022/10/26 01:53:50;;;;;;;;;;;15.70;99.90;;;;;;5062723;28;19917;-74
2022/10/26 01:56:20;;;;;;;;;;;15.70;99.90;;;;;;5062623;28;19928;-74
2022/10/26 01:58:46;;;;;;;;;;;15.70;99.90;;;;;;5061816;28;19941;-74
2022/10/26 02:01:18;;;;;;;;;;;15.60;99.90;;;;;;5043259;28;20319;-74
2022/10/26 02:03:46;;;;;;;;;;;15.60;99.90;;;;;;5061371;28;20379;-73
2022/10/26 02:06:18;;;;;;;;;;;15.60;99.90;;;;;;5053578;28;20430;-74
2022/10/26 02:09:00;;;;;;;;;;;15.70;99.90;;;;;;5039676;28;19927;-74
2022/10/26 02:11:25;;;;;;;;;;;15.70;99.90;;;;;;5059493;28;20034;-74
2022/10/26 02:13:51;;;;;;;;;;;15.60;99.90;;;;;;5054077;28;20446;-74
2022/10/26 02:16:24;;;;;;;;;;;15.60;99.90;;;;;;5062693;28;19923;-74
2022/10/26 02:18:50;;;;;;;;;;;15.50;99.90;;;;;;5061817;28;19917;-74
2022/10/26 02:21:18;;;;;;;;;;;15.40;99.90;;;;;;5061753;28;20269;-74
2022/10/26 02:23:45;;;;;;;;;;;15.40;99.90;;;;;;5042991;28;20174;-75
2022/10/26 02:26:12;;;;;;;;;;;15.40;99.90;;;;;;5057237;28;20008;-73
2022/10/26 02:28:41;;;;;;;;;;;15.30;99.90;;;;;;5033955;28;20344;-75
2022/10/26 02:31:06;;;;;;;;;;;15.30;99.90;;;;;;5045456;28;19912;-74
2022/10/26 02:33:35;;;;;;;;;;;15.20;99.90;;;;;;5059389;28;20067;-74
2022/10/26 02:36:04;;;;;;;;;;;15.20;99.90;;;;;;5052552;28;20034;-74
2022/10/26 02:38:31;;;;;;;;;;;15.10;99.90;;;;;;5061154;28;20179;-74
2022/10/26 02:40:57;;;;;;;;;;;15.10;99.90;;;;;;5048309;28;20371;-74
2022/10/26 02:43:23;;;;;;;;;;;15.10;99.90;;;;;;5060873;28;19927;-74
2022/10/26 02:45:52;;;;;;;;;;;15.20;99.90;;;;;;5061080;28;19916;-74
2022/10/26 02:48:17;;;;;;;;;;;15.40;99.90;;;;;;5043117;28;19927;-74
2022/10/26 02:50:52;;;;;;;;;;;15.50;99.90;;;;;;5043966;28;20337;-74
2022/10/26 02:53:24;;;;;;;;;;;15.50;99.90;;;;;;5060722;28;19920;-74
2022/10/26 02:55:50;;;;;;;;;;;15.70;99.90;;;;;;5049013;28;19924;-74
2022/10/26 02:58:18;;;;;;;;;;;15.80;99.90;;;;;;5063308;28;20309;-74
2022/10/26 03:00:45;;;;;;;;;;;15.90;99.90;;;;;;5061517;28;19931;-74
2022/10/26 03:03:11;;;;;;;;;;;15.80;99.90;;;;;;5060427;28;20450;-73
2022/10/26 03:05:40;;;;;;;;;;;15.70;99.90;;;;;;5060258;28;19928;-74
2022/10/26 03:08:05;;;;;;;;;;;15.70;99.90;;;;;;5063035;28;20002;-74
2022/10/26 03:10:31;;;;;;;;;;;15.70;99.90;;;;;;5061618;28;20038;-73
2022/10/26 03:12:57;;;;;;;;;;;15.60;99.90;;;;;;5049636;28;19916;-73
2022/10/26 03:15:22;;;;;;;;;;;15.70;99.90;;;;;;5041070;28;20005;-74
2022/10/26 03:17:48;;;;;;;;;;;15.80;99.90;;;;;;5041626;28;20526;-74
2022/10/26 03:20:13;;;;;;;;;;;15.90;99.90;;;;;;5054476;28;19925;-74
2022/10/26 03:22:39;;;;;;;;;;;15.90;99.90;;;;;;5043826;28;20087;-74
2022/10/26 03:25:05;;;;;;;;;;;15.90;99.90;;;;;;5060029;28;19932;-74
2022/10/26 03:27:30;;;;;;;;;;;15.90;99.90;;;;;;5045037;28;19939;-73
2022/10/26 03:29:56;;;;;;;;;;;15.80;99.90;;;;;;5046017;28;19912;-74
2022/10/26 03:32:22;;;;;;;;;;;15.90;99.90;;;;;;5057024;28;19980;-74
2022/10/26 03:34:47;;;;;;;;;;;15.90;99.90;;;;;;5045776;28;20370;-75
2022/10/26 03:37:13;;;;;;;;;;;16.10;99.90;;;;;;5041069;28;19924;-74
2022/10/26 03:39:38;;;;;;;;;;;16.20;99.90;;;;;;5042000;28;19924;-74
2022/10/26 03:42:04;;;;;;;;;;;16.30;99.90;;;;;;5042054;28;19917;-74
2022/10/26 03:44:30;;;;;;;;;;;16.30;99.90;;;;;;5055253;28;20697;-74
2022/10/26 03:46:55;;;;;;;;;;;16.50;99.90;;;;;;5043692;28;19919;-74
2022/10/26 03:49:20;;;;;;;;;;;16.50;99.90;;;;;;5060111;28;19918;-74
2022/10/26 03:51:46;;;;;;;;;;;16.60;99.90;;;;;;5050934;28;19917;-74
2022/10/26 03:54:11;;;;;;;;;;;16.60;99.90;;;;;;5060182;28;19939;-75
2022/10/26 03:56:37;;;;;;;;;;;16.70;99.90;;;;;;5045982;28;19917;-73
2022/10/26 03:59:02;;;;;;;;;;;16.70;99.90;;;;;;5059683;28;20003;-74
2022/10/26 04:01:28;;;;;;;;;;;16.70;99.90;;;;;;5059324;28;19924;-74
2022/10/26 04:03:53;;;;;;;;;;;16.70;99.90;;;;;;5060576;28;20361;-74
2022/10/26 04:06:19;;;;;;;;;;;16.70;99.90;;;;;;5061518;28;19913;-74
2022/10/26 04:08:44;;;;;;;;;;;16.70;99.90;;;;;;5050857;28;20343;-74
2022/10/26 04:11:10;;;;;;;;;;;16.70;99.90;;;;;;5039740;28;19917;-74
2022/10/26 04:13:35;;;;;;;;;;;16.70;99.90;;;;;;5042178;28;19921;-75
2022/10/26 04:16:01;;;;;;;;;;;16.70;99.90;;;;;;5046810;28;20364;-75
2022/10/26 04:18:26;;;;;;;;;;;16.70;99.90;;;;;;5061729;28;19938;-76
2022/10/26 04:20:52;;;;;;;;;;;16.60;99.90;;;;;;5059618;28;19924;-75
2022/10/26 04:23:18;;;;;;;;;;;16.70;99.90;;;;;;5060595;28;19960;-75
2022/10/26 04:25:44;;;;;;;;;;;16.70;99.90;;;;;;5059963;28;19970;-74
2022/10/26 04:28:10;;;;;;;;;;;16.70;99.90;;;;;;5052390;28;19924;-74
2022/10/26 04:30:36;;;;;;;;;;;16.70;99.90;;;;;;5048672;28;19920;-75
2022/10/26 04:33:02;;;;;;;;;;;16.50;99.90;;;;;;5060686;28;19919;-75
2022/10/26 04:35:28;;;;;;;;;;;16.40;99.90;;;;;;5061096;28;19949;-74
2022/10/26 04:37:58;;;;;;;;;;;16.40;99.90;;;;;;5060469;28;20015;-74
2022/10/26 04:40:24;;;;;;;;;;;16.30;99.90;;;;;;5045703;28;20031;-74
2022/10/26 04:42:49;;;;;;;;;;;16.20;99.90;;;;;;5040783;28;19942;-74
2022/10/26 04:45:15;;;;;;;;;;;16.10;99.90;;;;;;5057780;28;20328;-75
2022/10/26 04:47:41;;;;;;;;;;;16.10;99.90;;;;;;5060787;28;19919;-74
2022/10/26 04:50:08;;;;;;;;;;;16.00;99.90;;;;;;5041165;28;19944;-74
2022/10/26 04:52:34;;;;;;;;;;;16.00;99.90;;;;;;5054221;28;19982;-74
2022/10/26 04:55:00;;;;;;;;;;;15.90;99.90;;;;;;5059316;28;20268;-75
2022/10/26 04:57:26;;;;;;;;;;;15.90;99.90;;;;;;5061145;28;20404;-74
2022/10/26 04:59:51;;;;;;;;;;;15.90;99.90;;;;;;5057981;28;19927;-75
2022/10/26 05:02:17;;;;;;;;;;;15.90;99.90;;;;;;5044941;28;19938;-75
2022/10/26 05:04:42;;;;;;;;;;;15.90;99.90;;;;;;5057383;28;19947;-75
2022/10/26 05:07:08;;;;;;;;;;;16.00;99.90;;;;;;5061730;28;19909;-74
2022/10/26 05:09:33;;;;;;;;;;;16.00;99.90;;;;;;5030152;28;19917;-74
2022/10/26 05:11:59;;;;;;;;;;;16.00;99.90;;;;;;5060787;28;20371;-75
2022/10/26 05:14:24;;;;;;;;;;;16.10;99.90;;;;;;5038074;28;19912;-76
2022/10/26 05:16:50;;;;;;;;;;;16.20;99.90;;;;;;5060749;28;19969;-75
2022/10/26 05:19:15;;;;;;;;;;;16.20;99.90;;;;;;5060065;28;19916;-75
2022/10/26 05:21:41;;;;;;;;;;;16.30;99.90;;;;;;5054126;28;19971;-74
2022/10/26 05:24:06;;;;;;;;;;;16.30;99.90;;;;;;5038099;28;19998;-75
2022/10/26 05:26:32;;;;;;;;;;;16.30;99.90;;;;;;5041785;28;19955;-73
2022/10/26 05:28:57;;;;;;;;;;;16.30;99.90;;;;;;5047382;28;19916;-74
2022/10/26 05:31:23;;;;;;;;;;;16.30;99.90;;;;;;5057388;28;20826;-74
2022/10/26 05:33:49;;;;;;;;;;;16.30;99.90;;;;;;5042014;28;20405;-75
2022/10/26 05:36:15;;;;;;;;;;;16.40;99.90;;;;;;5060203;28;19974;-74
2022/10/26 05:38:40;;;;;;;;;;;16.40;99.90;;;;;;5058571;28;19921;-74
2022/10/26 05:41:06;;;;;;;;;;;16.40;99.90;;;;;;5039929;28;19924;-74
2022/10/26 05:43:31;;;;;;;;;;;16.30;99.90;;;;;;5028920;28;20417;-73
2022/10/26 05:45:57;;;;;;;;;;;16.30;99.90;;;;;;5060671;28;20020;-74
2022/10/26 05:48:22;;;;;;;;;;;16.20;99.90;;;;;;5059672;28;20275;-74
2022/10/26 05:50:48;;;;;;;;;;;16.30;99.90;;;;;;5057414;28;20374;-74
2022/10/26 05:53:14;;;;;;;;;;;16.30;99.90;;;;;;5022024;28;19995;-74
2022/10/26 05:55:39;;;;;;;;;;;16.30;99.90;;;;;;5041046;28;20103;-74
2022/10/26 05:58:12;;;;;;;;;;;16.40;99.90;;;;;;5038642;28;19923;-74
2022/10/26 06:01:01;;;;;;;;;;;16.40;99.90;;;;;;5053055;28;20031;-75
2022/10/26 06:03:42;;;;;;;;;;;16.50;99.90;;;;;;5038550;28;19920;-75
2022/10/26 06:06:09;;;;;;;;;;;16.50;99.90;;;;;;5062349;28;20191;-74
2022/10/26 06:08:35;;;;;;;;;;;16.50;99.90;;;;;;5063183;28;19916;-74
2022/10/26 06:11:01;;;;;;;;;;;16.50;99.90;;;;;;5063864;28;20362;-74
2022/10/26 06:13:27;;;;;;;;;;;16.50;99.90;;;;;;5061322;28;19916;-75
2022/10/26 06:16:01;;;;;;;;;;;16.50;99.90;;;;;;5059520;28;20399;-75
2022/10/26 06:18:34;;;;;;;;;;;16.50;99.90;;;;;;5056243;28;20005;-74
2022/10/26 06:21:05;;;;;;;;;;;16.50;99.90;;;;;;5041450;28;19932;-75
2022/10/26 06:23:31;;;;;;;;;;;16.50;99.90;;;;;;5041394;28;19924;-74
2022/10/26 06:26:01;;;;;;;;;;;16.40;99.90;;;;;;5055630;28;19917;-75
2022/10/26 06:28:35;;;;;;;;;;;16.40;99.90;;;;;;5042602;28;19923;-74
2022/10/26 06:31:01;;;;;;;;;;;16.40;99.90;;;;;;5043874;28;19993;-74
2022/10/26 06:33:27;;;;;;;;;;;16.40;99.90;;;;;;5045620;28;20412;-74
2022/10/26 06:35:58;;;;;;;;;;;16.40;99.90;;;;;;5062019;28;19916;-74
2022/10/26 06:38:26;;;;;;;;;;;16.50;99.90;;;;;;5045849;28;20001;-73
2022/10/26 06:40:54;;;;;;;;;;;16.60;99.90;;;;;;5059056;28;20352;-74
2022/10/26 06:43:24;;;;;;;;;;;16.60;99.90;;;;;;5063500;28;19916;-75
2022/10/26 06:46:09;;;;;;;;;;;16.50;99.90;;;;;;5040887;28;19982;-74
2022/10/26 06:48:47;;;;;;;;;;;16.40;99.90;;;;;;4692153;28;10000595;-74
2022/10/26 06:51:14;;;;;;;;;;;16.30;99.90;;;;;;5051115;28;19924;-74
2022/10/26 06:53:47;;;;;;;;;;;16.10;99.90;;;;;;5038409;28;19916;-75
2022/10/26 06:56:13;;;;;;;;;;;16.10;99.90;;;;;;5054800;28;20384;-74
2022/10/26 06:58:39;;;;;;;;;;;16.00;99.90;;;;;;5049089;28;19916;-74
2022/10/26 07:01:05;;;;;;;;;;;16.00;99.90;;;;;;5038954;28;19932;-74
2022/10/26 07:03:30;;;;;;;;;;;16.00;99.90;;;;;;5054110;28;20089;-74
2022/10/26 07:05:56;;;;;;;;;;;16.00;99.90;;;;;;5058894;28;20068;-75
2022/10/26 07:08:21;;;;;;;;;;;16.00;99.90;;;;;;5039208;28;19916;-75
2022/10/26 07:10:47;;;;;;;;;;;16.10;99.90;;;;;;5041866;28;20355;-74
2022/10/26 07:13:12;;;;;;;;;;;16.10;99.90;;;;;;5061152;28;20040;-74
2022/10/26 07:15:38;;;;;;;;;;;16.10;99.90;;;;;;5059785;28;19924;-75
2022/10/26 07:18:04;;;;;;;;;;;16.10;99.90;;;;;;5032108;28;20011;-75
2022/10/26 07:20:30;;;;;;;;;;;16.00;99.90;;;;;;5043798;28;19920;-76
2022/10/26 07:22:56;;;;;;;;;;;16.10;99.90;;;;;;5055042;28;19983;-74
2022/10/26 07:25:22;;;;;;;;;;;16.20;99.90;;;;;;5060266;28;20369;-74
2022/10/26 07:27:47;;;;;;;;;;;16.10;99.90;;;;;;5053732;28;19969;-76
2022/10/26 07:30:13;;;;;;;;;;;16.20;99.90;;;;;;5057739;28;19920;-77
2022/10/26 07:32:38;;;;;;;;;;;16.10;99.90;;;;;;5062116;28;19913;-76
2022/10/26 07:35:04;;;;;;;;;;;16.10;99.90;;;;;;5058769;28;20011;-76
2022/10/26 07:37:29;;;;;;;;;;;16.10;99.90;;;;;;5042983;28;19916;-76
2022/10/26 07:39:55;;;;;;;;;;;16.20;99.90;;;;;;5057157;28;20011;-75
2022/10/26 07:42:20;;;;;;;;;;;16.20;99.90;;;;;;5038985;28;19916;-76
2022/10/26 07:44:46;;;;;;;;;;;16.40;99.90;;;;;;5032124;28;19916;-76
2022/10/26 07:47:11;;;;;;;;;;;16.50;99.90;;;;;;5052369;28;19920;-77
2022/10/26 07:49:37;;;;;;;;;;;16.60;99.90;;;;;;5056029;28;20011;-75
2022/10/26 07:52:02;;;;;;;;;;;16.80;99.90;;;;;;5025187;28;19933;-76
2022/10/26 07:54:28;;;;;;;;;;;17.10;99.90;;;;;;5023924;28;19985;-76
2022/10/26 07:56:53;;;;;;;;;;;17.20;99.90;;;;;;5050059;28;20243;-76
2022/10/26 07:59:19;;;;;;;;;;;17.30;99.90;;;;;;5056468;28;19917;-75
2022/10/26 08:01:44;;;;;;;;;;;17.50;99.90;;;;;;5051949;28;19931;-78
2022/10/26 08:04:10;;;;;;;;;;;17.40;99.90;;;;;;5054611;28;19917;-76
2022/10/26 08:06:35;;;;;;;;;;;17.30;99.90;;;;;;5061575;28;20016;-75
2022/10/26 08:09:01;;;;;;;;;;;17.50;99.90;;;;;;5062650;28;20449;-74
2022/10/26 08:11:26;;;;;;;;;;;17.50;99.90;;;;;;5055448;28;20447;-76
2022/10/26 08:13:52;;;;;;;;;;;17.60;99.90;;;;;;5055701;28;19927;-74
2022/10/26 08:16:18;;;;;;;;;;;17.70;99.90;;;;;;5056791;28;20393;-75
2022/10/26 08:18:46;;;;;;;;;;;17.80;99.90;;;;;;5050677;28;19923;-75
2022/10/26 08:21:12;;;;;;;;;;;17.80;99.90;;;;;;5051352;28;20192;-76
2022/10/26 08:23:37;;;;;;;;;;;18.20;99.90;;;;;;5041474;28;19920;-75
2022/10/26 08:26:03;;;;;;;;;;;18.50;99.90;;;;;;5056180;28;20476;-76
2022/10/26 08:28:29;;;;;;;;;;;18.60;99.90;;;;;;5056098;28;19917;-76
2022/10/26 08:30:55;;;;;;;;;;;18.80;99.90;;;;;;5051274;28;19969;-76
2022/10/26 08:33:20;;;;;;;;;;;19.00;99.90;;;;;;5040902;28;19938;-75
2022/10/26 08:35:46;;;;;;;;;;;19.00;99.90;;;;;;5037155;28;20380;-75
2022/10/26 08:38:11;;;;;;;;;;;19.30;99.90;;;;;;5059131;28;20046;-76
2022/10/26 08:40:38;;;;;;;;;;;19.80;99.90;;;;;;5043031;28;19921;-76
2022/10/26 08:43:11;;;;;;;;;;;19.90;99.90;;;;;;5062808;28;19920;-76
2022/10/26 08:46:00;;;;;;;;;;;19.80;99.90;;;;;;5037298;28;19982;-76
2022/10/26 08:48:28;;;;;;;;;;;19.50;99.90;;;;;;5027161;28;19917;-76
2022/10/26 08:50:55;;;;;;;;;;;19.30;99.90;;;;;;5051448;28;19923;-75
2022/10/26 08:53:28;;;;;;;;;;;19.00;99.90;;;;;;5048305;28;19920;-78
2022/10/26 08:56:12;;;;;;;;;;;18.90;99.90;;;;;;5059366;28;19917;-78
2022/10/26 08:58:40;;;;;;;;;;;18.80;99.90;;;;;;5046592;28;19918;-80
2022/10/26 09:01:07;;;;;;;;;;;18.90;99.90;;;;;;5042627;28;19924;-77
2022/10/26 09:03:32;;;;;;;;;;;18.90;99.90;;;;;;5042463;28;20648;-76
2022/10/26 09:06:08;;;;;;;;;;;19.10;99.90;;;;;;5040993;28;19917;-78
2022/10/26 09:08:46;;;;;;;;;;;19.00;99.90;;;;;;5049746;28;19927;-77
2022/10/26 09:11:11;;;;;;;;;;;18.90;99.90;;;;;;5058279;28;20377;-76
2022/10/26 09:13:37;;;;;;;;;;;18.80;99.90;;;;;;5033208;28;19992;-75
2022/10/26 09:16:10;;;;;;;;;;;18.70;99.90;;;;;;5054638;28;20298;-76
2022/10/26 09:18:36;;;;;;;;;;;18.70;99.90;;;;;;5047446;28;20079;-77
2022/10/26 09:21:01;;;;;;;;;;;18.80;99.90;;;;;;5053928;28;19957;-77
2022/10/26 09:23:30;;;;;;;;;;;18.90;99.90;;;;;;5056484;28;19943;-75
2022/10/26 09:26:00;;;;;;;;;;;19.10;99.90;;;;;;5059752;28;19917;-75
2022/10/26 09:28:26;;;;;;;;;;;19.20;99.90;;;;;;4687394;28;10000592;-73
2022/10/26 09:30:51;;;;;;;;;;;19.10;99.90;;;;;;5040201;28;19917;-74
2022/10/26 09:33:24;;;;;;;;;;;18.90;99.90;;;;;;5045985;28;19923;-74
2022/10/26 09:35:51;;;;;;;;;;;18.80;99.90;;;;;;5061829;28;19923;-75
2022/10/26 09:38:40;;;;;;;;;;;18.70;99.90;;;;;;5044442;28;20410;-74
2022/10/26 09:41:05;;;;;;;;;;;18.70;99.90;;;;;;5033774;28;19943;-72
2022/10/26 09:43:37;;;;;;;;;;;18.60;99.90;;;;;;5042105;28;20327;-77
2022/10/26 09:46:02;;;;;;;;;;;18.50;99.90;;;;;;5040291;28;19924;-74
2022/10/26 09:48:44;;;;;;;;;;;18.50;99.90;;;;;;5041205;28;19926;-74
2022/10/26 09:51:10;;;;;;;;;;;18.60;99.90;;;;;;5037803;28;20003;-74
2022/10/26 09:53:35;;;;;;;;;;;19.20;99.90;;;;;;5044517;28;20302;-75
2022/10/26 09:56:15;;;;;;;;;;;20.60;99.90;;;;;;5021369;28;20430;-73
2022/10/26 09:58:50;;;;;;;;;;;21.10;99.90;;;;;;5053001;28;20037;-73
2022/10/26 10:01:32;;;;;;;;;;;21.00;99.90;;;;;;5032351;28;20120;-75
2022/10/26 10:04:13;;;;;;;;;;;20.80;99.90;;;;;;5036295;28;19916;-75
2022/10/26 10:06:39;;;;;;;;;;;20.70;99.90;;;;;;5059737;28;19922;-74
2022/10/26 10:09:04;;;;;;;;;;;20.40;99.90;;;;;;5036492;28;19916;-74
2022/10/26 10:11:56;;;;;;;;;;;20.30;99.90;;;;;;5055375;28;20465;-74
2022/10/26 10:14:23;;;;;;;;;;;20.20;99.90;;;;;;5034363;28;19917;-74
2022/10/26 10:16:50;;;;;;;;;;;21.80;99.90;;;;;;5056767;28;20013;-75
2022/10/26 10:19:26;;;;;;;;;;;23.70;99.90;;;;;;5053693;28;20326;-77
2022/10/26 10:21:54;;;;;;;;;;;24.20;99.90;;;;;;5059470;28;19963;-74
2022/10/26 10:24:32;;;;;;;;;;;24.90;99.90;;;;;;5048922;28;19982;-75
2022/10/26 10:26:58;;;;;;;;;;;25.20;99.90;;;;;;5057496;28;19916;-74
2022/10/26 10:29:27;;;;;;;;;;;25.60;99.30;;;;;;5058727;28;20303;-76
2022/10/26 10:31:57;;;;;;;;;;;26.00;98.00;;;;;;5057320;28;19944;-75
2022/10/26 10:34:22;;;;;;;;;;;25.90;98.10;;;;;;5052741;28;20351;-76
2022/10/26 10:36:48;;;;;;;;;;;26.10;98.10;;;;;;5060312;28;20156;-78
2022/10/26 10:39:29;;;;;;;;;;;26.20;96.50;;;;;;5059350;28;20312;-74
2022/10/26 10:41:55;;;;;;;;;;;26.10;96.30;;;;;;5058395;28;20379;-75
2022/10/26 10:44:28;;;;;;;;;;;25.50;96.70;;;;;;5055942;28;19920;-75
2022/10/26 10:47:04;;;;;;;;;;;25.50;96.80;;;;;;5058062;28;19966;-74
2022/10/26 10:49:30;;;;;;;;;;;25.10;96.80;;;;;;5058464;28;19927;-75
2022/10/26 10:51:56;;;;;;;;;;;24.80;97.30;;;;;;5055299;28;19916;-75
2022/10/26 10:54:31;;;;;;;;;;;24.30;98.60;;;;;;5056012;28;20375;-74
2022/10/26 10:57:03;;;;;;;;;;;24.00;99.80;;;;;;5055223;28;20312;-74
2022/10/26 10:59:44;;;;;;;;;;;24.60;98.70;;;;;;5039190;28;19992;-74
2022/10/26 11:02:28;;;;;;;;;;;24.40;98.20;;;;;;5058420;28;19927;-74
2022/10/26 11:04:56;;;;;;;;;;;24.20;99.60;;;;;;5058151;28;19995;-73
2022/10/26 11:07:23;;;;;;;;;;;23.60;99.90;;;;;;5037192;28;19978;-75
2022/10/26 11:09:49;;;;;;;;;;;23.80;99.90;;;;;;5055423;28;20370;-75
2022/10/26 11:12:14;;;;;;;;;;;23.60;99.90;;;;;;5032052;28;20007;-74
2022/10/26 11:14:41;;;;;;;;;;;23.30;99.90;;;;;;5051431;28;20095;-74
2022/10/26 11:17:17;;;;;;;;;;;22.40;99.90;;;;;;5050149;28;20207;-74
2022/10/26 11:19:46;;;;;;;;;;;21.70;99.90;;;;;;5053051;28;20104;-73
2022/10/26 11:22:17;;;;;;;;;;;21.30;99.90;;;;;;5032294;28;20053;-73
2022/10/26 11:24:43;;;;;;;;;;;21.00;99.90;;;;;;5067343;28;20069;-74
2022/10/26 11:27:16;;;;;;;;;;;21.20;99.90;;;;;;5071836;28;20474;-75
2022/10/26 11:29:50;;;;;;;;;;;21.40;99.90;;;;;;5050592;28;19920;-75
2022/10/26 11:32:26;;;;;;;;;;;21.20;99.90;;;;;;5056670;28;19920;-75
2022/10/26 11:35:13;;;;;;;;;;;21.10;99.90;;;;;;5064580;28;20491;-74
2022/10/26 11:37:57;;;;;;;;;;;20.70;99.90;;;;;;5046962;28;20430;-75
2022/10/26 11:40:26;;;;;;;;;;;20.50;99.90;;;;;;5054319;28;19924;-73
2022/10/26 11:43:13;;;;;;;;;;;20.60;99.90;;;;;;5063105;28;19916;-74
2022/10/26 11:45:42;;;;;;;;;;;20.60;99.90;;;;;;5070051;28;19916;-74
2022/10/26 11:48:31;;;;;;;;;;;20.80;99.90;;;;;;5059436;28;19924;-74
2022/10/26 11:50:58;;;;;;;;;;;20.90;99.90;;;;;;5059867;28;19920;-74
2022/10/26 11:53:25;;;;;;;;;;;20.80;99.90;;;;;;5081124;28;20002;-73
2022/10/26 11:55:53;;;;;;;;;;;20.70;99.90;;;;;;5048791;28;19916;-73
2022/10/26 11:58:21;;;;;;;;;;;20.90;99.90;;;;;;5051750;28;19922;-73
2022/10/26 12:00:49;;;;;;;;;;;20.90;99.90;;;;;;5079392;28;19924;-74
2022/10/26 12:03:17;;;;;;;;;;;21.40;99.90;;;;;;5063557;28;20099;-74
2022/10/26 12:05:50;;;;;;;;;;;21.50;99.90;;;;;;5082065;28;19949;-75
2022/10/26 12:08:27;;;;;;;;;;;21.00;99.90;;;;;;5070738;28;20371;-73
2022/10/26 12:11:15;;;;;;;;;;;20.60;99.90;;;;;;5063054;28;19922;-75
2022/10/26 12:13:49;;;;;;;;;;;20.30;99.90;;;;;;5063680;28;19916;-75
2022/10/26 12:16:27;;;;;;;;;;;20.40;99.90;;;;;;5073762;28;20011;-75
2022/10/26 12:18:56;;;;;;;;;;;20.50;99.90;;;;;;5075110;28;19934;-74
2022/10/26 12:21:23;;;;;;;;;;;20.90;99.90;;;;;;5061746;28;19946;-74
2022/10/26 12:23:57;;;;;;;;;;;21.40;99.90;;;;;;5060878;28;20019;-75
2022/10/26 12:26:22;;;;;;;;;;;21.60;99.90;;;;;;5063828;28;19924;-79
2022/10/26 12:29:08;;;;;;;;;;;21.60;99.90;;;;;;5070067;28;19920;-77
2022/10/26 12:31:36;;;;;;;;;;;21.30;99.90;;;;;;5076022;28;20283;-77
2022/10/26 12:34:22;;;;;;;;;;;21.30;99.90;;;;;;5062100;28;19923;-78
2022/10/26 12:36:48;;;;;;;;;;;21.00;99.90;;;;;;5077616;28;20015;-77
2022/10/26 12:39:26;;;;;;;;;;;20.80;99.90;;;;;;5077645;28;20279;-78
2022/10/26 12:42:08;;;;;;;;;;;20.50;99.90;;;;;;5080661;28;20006;-78
2022/10/26 12:44:56;;;;;;;;;;;20.30;99.90;;;;;;5081436;28;20351;-77
2022/10/26 12:47:44;;;;;;;;;;;20.30;99.90;;;;;;5070841;28;19916;-77
2022/10/26 12:50:10;;;;;;;;;;;20.20;99.90;;;;;;5077673;28;19916;-78
2022/10/26 12:52:40;;;;;;;;;;;20.20;99.90;;;;;;5078031;28;20329;-77
2022/10/26 12:55:09;;;;;;;;;;;20.30;99.90;;;;;;5074234;28;19928;-78
2022/10/26 12:57:53;;;;;;;;;;;20.30;99.90;;;;;;5073471;28;19930;-78
2022/10/26 13:00:22;;;;;;;;;;;20.20;99.90;;;;;;5082372;28;19976;-79
2022/10/26 13:03:07;;;;;;;;;;;20.40;99.90;;;;;;5080643;28;19920;-80
2022/10/26 13:05:38;;;;;;;;;;;20.80;99.90;;;;;;5077089;28;19923;-76
2022/10/26 13:08:08;;;;;;;;;;;20.90;99.90;;;;;;5079425;28;20015;-77
2022/10/26 13:10:35;;;;;;;;;;;20.90;99.90;;;;;;4721517;28;9999628;-76
2022/10/26 13:13:01;;;;;;;;;;;21.20;99.90;;;;;;5078706;28;20482;-77
2022/10/26 13:15:28;;;;;;;;;;;21.30;99.90;;;;;;5080424;28;20319;-76
2022/10/26 13:18:01;;;;;;;;;;;21.20;99.90;;;;;;5081388;28;20472;-77
2022/10/26 13:20:30;;;;;;;;;;;21.10;99.90;;;;;;5078664;28;20267;-78
2022/10/26 13:22:56;;;;;;;;;;;20.70;99.90;;;;;;5074082;28;19913;-78
2022/10/26 13:25:26;;;;;;;;;;;20.30;99.90;;;;;;5076466;28;19928;-80
2022/10/26 13:27:58;;;;;;;;;;;20.40;99.90;;;;;;5057317;28;19916;-76
2022/10/26 13:30:46;;;;;;;;;;;20.50;99.90;;;;;;5079439;28;19923;-78
2022/10/26 13:33:23;;;;;;;;;;;20.60;99.90;;;;;;5056921;28;19923;-76
2022/10/26 13:35:50;;;;;;;;;;;20.80;99.90;;;;;;5074632;28;19920;-76
2022/10/26 13:38:18;;;;;;;;;;;20.70;99.90;;;;;;5060979;28;19966;-78
2022/10/26 13:40:44;;;;;;;;;;;20.50;99.90;;;;;;5077558;28;19935;-78
2022/10/26 13:43:14;;;;;;;;;;;20.60;99.90;;;;;;5075702;28;19916;-78
2022/10/26 13:45:40;;;;;;;;;;;20.40;99.90;;;;;;5069971;28;19923;-75
2022/10/26 13:48:26;;;;;;;;;;;20.30;99.90;;;;;;5077146;28;19917;-77
2022/10/26 13:50:53;;;;;;;;;;;20.10;99.90;;;;;;5050727;28;19969;-79
2022/10/26 13:53:38;;;;;;;;;;;20.00;99.90;;;;;;5060099;28;19916;-75
2022/10/26 13:56:19;;;;;;;;;;;20.00;99.90;;;;;;5052584;28;19916;-78
2022/10/26 13:58:49;;;;;;;;;;;19.90;99.90;;;;;;5071056;28;19939;-77
2022/10/26 14:01:16;;;;;;;;;;;19.70;99.90;;;;;;5069770;28;19993;-76
2022/10/26 14:03:43;;;;;;;;;;;19.70;99.90;;;;;;5059281;28;19916;-78
2022/10/26 14:06:23;;;;;;;;;;;19.70;99.90;;;;;;5070624;28;20094;-78
2022/10/26 14:08:50;;;;;;;;;;;19.50;99.90;;;;;;5052976;28;22439;-75
2022/10/26 14:11:20;;;;;;;;;;;19.40;99.90;;;;;;5075345;28;19966;-79
2022/10/26 14:13:46;;;;;;;;;;;19.40;99.90;;;;;;5070438;28;19916;-78
2022/10/26 14:16:14;;;;;;;;;;;19.40;99.90;;;;;;5053030;28;20366;-78
2022/10/26 14:18:39;;;;;;;;;;;19.40;99.90;;;;;;5076993;28;19967;-79
2022/10/26 14:21:06;;;;;;;;;;;19.50;99.90;;;;;;5075759;28;20211;-78
2022/10/26 14:23:34;;;;;;;;;;;19.50;99.90;;;;;;5072716;28;19932;-79
2022/10/26 14:25:59;;;;;;;;;;;19.50;99.90;;;;;;5061342;28;20304;-79
2022/10/26 14:28:27;;;;;;;;;;;19.50;99.90;;;;;;5077680;28;19916;-78